createdAt,value
2018-05-23T00:01:04.218Z,11.91
2018-05-23T00:03:30.550Z,12.08
2018-05-23T00:05:56.958Z,12.26
2018-05-23T00:08:23.303Z,12.22
2018-05-23T00:10:49.645Z,12.07
2018-05-23T00:13:16.105Z,12.10
2018-05-23T00:15:42.439Z,12.23
2018-05-23T00:18:08.760Z,12.23
2018-05-23T00:20:35.119Z,12.10
2018-05-23T00:23:01.465Z,12.04
2018-05-23T00:25:27.812Z,12.22
2018-05-23T00:27:54.209Z,12.33
2018-05-23T00:30:20.531Z,12.48
2018-05-23T00:32:46.856Z,12.52
2018-05-23T00:35:13.386Z,12.56
2018-05-23T00:37:39.721Z,12.38
2018-05-23T00:40:06.084Z,12.24
2018-05-23T00:42:32.467Z,12.27
2018-05-23T00:44:58.804Z,12.30
2018-05-23T00:47:25.140Z,12.13
2018-05-23T00:49:51.516Z,11.97
2018-05-23T00:52:17.855Z,11.93
2018-05-23T00:54:56.514Z,11.74
2018-05-23T00:57:22.864Z,11.68
2018-05-23T00:59:49.200Z,11.63
2018-05-23T01:02:15.591Z,11.66
2018-05-23T01:07:36.180Z,11.95
2018-05-23T01:10:02.588Z,12.05
2018-05-23T01:12:28.921Z,12.05
2018-05-23T01:14:55.406Z,12.03
2018-05-23T01:17:21.824Z,12.20
2018-05-23T01:19:48.178Z,12.46
2018-05-23T01:22:14.565Z,12.73
2018-05-23T01:24:40.898Z,12.73
2018-05-23T01:27:07.230Z,12.81
2018-05-23T01:29:33.609Z,12.79
2018-05-23T01:31:59.947Z,12.92
2018-05-23T01:34:26.288Z,12.87
2018-05-23T01:36:52.738Z,12.93
2018-05-23T01:39:19.080Z,13.01
2018-05-23T01:41:45.454Z,13.09
2018-05-23T01:44:11.829Z,13.21
2018-05-23T01:46:38.174Z,13.17
2018-05-23T01:49:16.517Z,13.14
2018-05-23T01:51:42.845Z,13.10
2018-05-23T01:54:09.172Z,13.04
2018-05-23T01:56:35.781Z,12.93
2018-05-23T01:59:02.142Z,12.99
2018-05-23T02:01:28.470Z,13.07
2018-05-23T02:03:54.982Z,12.96
2018-05-23T02:06:21.310Z,12.92
2018-05-23T02:08:47.630Z,12.85
2018-05-23T02:11:14.041Z,12.81
2018-05-23T02:13:40.355Z,12.73
2018-05-23T02:16:06.691Z,12.68
2018-05-23T02:18:33.113Z,12.84
2018-05-23T02:21:00.432Z,12.78
2018-05-23T02:23:26.769Z,12.89
2018-05-23T02:25:53.152Z,12.84
2018-05-23T02:28:22.532Z,12.82
2018-05-23T02:30:48.877Z,12.87
2018-05-23T02:33:15.255Z,12.89
2018-05-23T02:35:42.537Z,12.80
2018-05-23T02:38:08.865Z,12.74
2018-05-23T02:40:35.358Z,12.69
2018-05-23T02:43:01.714Z,12.68
2018-05-23T02:45:28.055Z,12.65
2018-05-23T02:47:54.452Z,12.56
2018-05-23T02:50:20.827Z,12.51
2018-05-23T02:52:47.164Z,12.46
2018-05-23T02:55:13.524Z,12.58
2018-05-23T02:57:39.980Z,12.51
2018-05-23T03:00:06.361Z,12.37
2018-05-23T03:02:32.801Z,12.40
2018-05-23T03:04:59.136Z,12.31
2018-05-23T03:07:25.478Z,12.31
2018-05-23T03:09:51.851Z,12.33
2018-05-23T03:12:18.198Z,12.43
2018-05-23T03:14:44.529Z,12.43
2018-05-23T03:17:10.921Z,12.36
2018-05-23T03:19:37.266Z,12.34
2018-05-23T03:22:03.658Z,12.30
2018-05-23T03:24:30.085Z,12.36
2018-05-23T03:26:56.456Z,12.39
2018-05-23T03:29:22.768Z,12.37
2018-05-23T03:31:49.225Z,12.40
2018-05-23T03:34:15.589Z,12.43
2018-05-23T03:36:41.953Z,12.39
2018-05-23T03:39:08.324Z,12.40
2018-05-23T03:41:34.661Z,12.46
2018-05-23T03:44:00.983Z,12.46
2018-05-23T03:46:27.423Z,12.43
2018-05-23T03:48:53.757Z,12.55
2018-05-23T03:51:20.100Z,12.56
2018-05-23T03:53:46.539Z,12.59
2018-05-23T03:56:12.871Z,12.63
2018-05-23T03:58:39.306Z,12.74
2018-05-23T04:01:17.793Z,12.95
2018-05-23T04:03:56.291Z,12.90
2018-05-23T04:06:34.894Z,12.86
2018-05-23T04:09:01.249Z,12.86
2018-05-23T04:11:27.593Z,12.99
2018-05-23T04:13:53.979Z,12.89
2018-05-23T04:16:20.301Z,12.72
2018-05-23T04:18:46.648Z,12.87
2018-05-23T04:21:13.052Z,12.85
2018-05-23T04:23:39.409Z,12.76
2018-05-23T04:26:05.732Z,12.95
2018-05-23T04:28:32.170Z,12.64
2018-05-23T04:30:58.491Z,12.56
2018-05-23T04:33:24.965Z,12.82
2018-05-23T04:35:51.421Z,13.00
2018-05-23T04:38:17.746Z,13.11
2018-05-23T04:40:44.086Z,13.25
2018-05-23T04:43:10.475Z,13.46
2018-05-23T04:45:36.794Z,13.55
2018-05-23T04:48:03.145Z,13.61
2018-05-23T04:50:29.624Z,13.61
2018-05-23T04:52:55.966Z,13.51
2018-05-23T04:55:22.332Z,13.54
2018-05-23T04:57:48.715Z,13.56
2018-05-23T05:00:15.158Z,13.28
2018-05-23T05:02:44.529Z,13.17
2018-05-23T05:05:10.945Z,13.16
2018-05-23T05:07:37.279Z,13.22
2018-05-23T05:10:03.702Z,13.03
2018-05-23T05:12:30.174Z,13.12
2018-05-23T05:14:56.564Z,12.87
2018-05-23T05:17:22.921Z,12.89
2018-05-23T05:19:49.301Z,13.28
2018-05-23T05:22:15.636Z,13.33
2018-05-23T05:24:41.974Z,13.36
2018-05-23T05:27:08.403Z,13.44
2018-05-23T05:29:34.736Z,13.72
2018-05-23T05:32:01.109Z,13.97
2018-05-23T05:34:27.555Z,13.87
2018-05-23T05:36:53.895Z,13.61
2018-05-23T05:39:20.363Z,13.86
2018-05-23T05:41:46.802Z,14.15
2018-05-23T05:44:13.139Z,14.14
2018-05-23T05:46:39.481Z,14.31
2018-05-23T05:49:05.875Z,14.36
2018-05-23T05:51:32.213Z,14.41
2018-05-23T05:53:58.560Z,14.20
2018-05-23T05:56:25.360Z,14.20
2018-05-23T05:58:51.700Z,14.71
2018-05-23T06:01:18.194Z,14.85
2018-05-23T06:03:44.624Z,15.08
2018-05-23T06:06:10.968Z,15.19
2018-05-23T06:08:37.319Z,15.25
2018-05-23T06:11:03.781Z,15.43
2018-05-23T06:13:30.137Z,15.85
2018-05-23T06:15:56.483Z,16.13
2018-05-23T06:18:22.911Z,16.22
2018-05-23T06:20:49.254Z,16.23
2018-05-23T06:23:15.611Z,15.92
2018-05-23T06:25:42.034Z,16.39
2018-05-23T06:28:08.381Z,16.63
2018-05-23T06:30:34.754Z,16.91
2018-05-23T06:33:01.139Z,17.40
2018-05-23T06:35:27.490Z,17.77
2018-05-23T06:37:53.873Z,18.30
2018-05-23T06:40:21.276Z,17.68
2018-05-23T06:42:47.636Z,17.93
2018-05-23T06:45:14.088Z,17.92
2018-05-23T06:47:43.485Z,17.69
2018-05-23T06:50:09.912Z,17.15
2018-05-23T06:52:36.247Z,17.55
2018-05-23T06:55:05.640Z,17.84
2018-05-23T06:57:31.992Z,17.28
2018-05-23T06:59:58.355Z,17.72
2018-05-23T07:02:24.886Z,17.96
2018-05-23T07:04:51.236Z,18.05
2018-05-23T07:07:17.570Z,18.27
2018-05-23T07:09:43.957Z,17.79
2018-05-23T07:12:10.326Z,17.68
2018-05-23T07:14:36.714Z,17.56
2018-05-23T07:17:03.147Z,18.04
2018-05-23T07:19:34.869Z,17.86
2018-05-23T07:22:01.230Z,18.15
2018-05-23T07:24:28.072Z,18.44
2018-05-23T07:26:54.440Z,18.19
2018-05-23T07:29:20.797Z,18.39
2018-05-23T07:31:48.050Z,18.58
2018-05-23T07:34:14.390Z,18.94
2018-05-23T07:36:40.726Z,19.07
2018-05-23T07:39:07.104Z,19.45
2018-05-23T07:41:34.452Z,19.47
2018-05-23T07:44:00.931Z,20.06
2018-05-23T07:46:27.400Z,19.86
2018-05-23T07:48:53.734Z,20.40
2018-05-23T07:51:20.061Z,20.49
2018-05-23T07:53:46.441Z,20.76
2018-05-23T07:56:12.798Z,21.18
2018-05-23T07:58:39.125Z,20.37
2018-05-23T08:01:05.526Z,20.50
2018-05-23T08:03:35.385Z,20.66
2018-05-23T08:06:01.729Z,21.15
2018-05-23T08:08:28.190Z,21.10
2018-05-23T08:10:54.516Z,20.96
2018-05-23T08:13:20.838Z,21.68
2018-05-23T08:15:47.281Z,21.74
2018-05-23T08:18:13.624Z,21.61
2018-05-23T08:20:39.957Z,22.02
2018-05-23T08:23:06.342Z,21.58
2018-05-23T08:25:32.713Z,21.50
2018-05-23T08:27:59.045Z,22.26
2018-05-23T08:30:25.522Z,22.24
2018-05-23T08:32:51.853Z,22.67
2018-05-23T08:35:18.215Z,22.28
2018-05-23T08:37:44.848Z,22.67
2018-05-23T08:40:11.187Z,22.27
2018-05-23T08:42:37.546Z,22.36
2018-05-23T08:45:03.985Z,22.89
2018-05-23T08:47:30.331Z,22.85
2018-05-23T08:49:56.691Z,22.71
2018-05-23T08:52:23.130Z,22.38
2018-05-23T08:54:49.478Z,22.33
2018-05-23T08:57:15.836Z,22.74
2018-05-23T08:59:42.221Z,22.78
2018-05-23T09:02:08.565Z,23.18
2018-05-23T09:04:35.307Z,23.59
2018-05-23T09:07:01.756Z,23.52
2018-05-23T09:09:28.106Z,24.06
2018-05-23T09:11:54.447Z,24.38
2018-05-23T09:14:20.980Z,23.36
2018-05-23T09:16:48.311Z,24.06
2018-05-23T09:19:14.640Z,23.56
2018-05-23T09:21:41.030Z,24.22
2018-05-23T09:24:07.371Z,24.82
2018-05-23T09:26:33.691Z,24.26
2018-05-23T09:29:00.081Z,24.28
2018-05-23T09:31:26.508Z,24.83
2018-05-23T09:33:52.854Z,24.85
2018-05-23T09:36:19.295Z,24.62
2018-05-23T09:38:45.666Z,24.55
2018-05-23T09:41:12.059Z,24.72
2018-05-23T09:43:38.449Z,24.26
2018-05-23T09:46:04.795Z,24.22
2018-05-23T09:48:31.129Z,23.77
2018-05-23T09:50:58.445Z,23.57
2018-05-23T09:53:24.926Z,23.64
2018-05-23T09:55:51.268Z,22.83
2018-05-23T09:58:17.721Z,22.74
2018-05-23T10:00:44.060Z,23.54
2018-05-23T10:03:10.410Z,24.23
2018-05-23T10:05:36.921Z,24.13
2018-05-23T10:08:03.276Z,24.33
2018-05-23T10:10:29.691Z,24.13
2018-05-23T10:12:56.010Z,24.09
2018-05-23T10:15:22.339Z,24.13
2018-05-23T10:17:48.679Z,24.58
2018-05-23T10:20:15.125Z,24.48
2018-05-23T10:22:41.460Z,24.68
2018-05-23T10:25:07.871Z,24.92
2018-05-23T10:27:34.268Z,24.76
2018-05-23T10:30:00.631Z,25.08
2018-05-23T10:32:26.971Z,25.38
2018-05-23T10:34:53.357Z,25.43
2018-05-23T10:37:19.695Z,25.30
2018-05-23T10:39:46.051Z,25.83
2018-05-23T10:42:12.513Z,26.20
2018-05-23T10:44:38.843Z,25.74
2018-05-23T10:47:06.016Z,26.05
2018-05-23T10:49:32.388Z,26.39
2018-05-23T10:51:58.781Z,26.98
2018-05-23T10:54:25.097Z,27.55
2018-05-23T10:56:51.477Z,27.15
2018-05-23T10:59:17.813Z,27.33
2018-05-23T11:01:44.154Z,25.98
2018-05-23T11:04:10.618Z,26.71
2018-05-23T11:06:37.047Z,27.30
2018-05-23T11:09:04.251Z,27.79
2018-05-23T11:11:30.573Z,28.00
2018-05-23T11:13:56.973Z,28.28
2018-05-23T11:16:23.346Z,27.86
2018-05-23T11:18:49.734Z,28.34
2018-05-23T11:21:16.076Z,28.93
2018-05-23T11:23:42.418Z,28.00
2018-05-23T11:26:08.886Z,28.46
2018-05-23T11:28:35.231Z,28.80
2018-05-23T11:31:01.627Z,29.00
2018-05-23T11:33:28.117Z,29.06
2018-05-23T11:35:54.488Z,29.58
2018-05-23T11:38:20.827Z,30.19
2018-05-23T11:40:47.225Z,30.23
2018-05-23T11:43:13.582Z,29.57
2018-05-23T11:45:39.931Z,29.71
2018-05-23T11:48:06.406Z,29.12
2018-05-23T11:50:32.767Z,28.33
2018-05-23T11:52:59.105Z,27.44
2018-05-23T11:55:25.578Z,26.81
2018-05-23T11:57:51.887Z,26.73
2018-05-23T12:00:18.223Z,26.36
2018-05-23T12:02:44.946Z,26.28
2018-05-23T12:05:11.322Z,25.91
2018-05-23T12:07:38.326Z,25.61
2018-05-23T12:10:04.761Z,25.50
2018-05-23T12:12:31.086Z,25.39
2018-05-23T12:14:57.431Z,26.09
2018-05-23T12:17:23.695Z,26.74
2018-05-23T12:19:50.050Z,27.01
2018-05-23T12:22:16.397Z,26.24
2018-05-23T12:24:42.799Z,25.22
2018-05-23T12:27:09.133Z,24.94
2018-05-23T12:29:35.462Z,24.46
2018-05-23T12:32:01.895Z,24.30
2018-05-23T12:34:28.249Z,24.15
2018-05-23T12:36:54.577Z,23.93
2018-05-23T12:39:21.103Z,23.86
2018-05-23T12:41:47.444Z,23.57
2018-05-23T12:44:13.788Z,23.51
2018-05-23T12:46:40.189Z,23.33
2018-05-23T12:49:06.764Z,23.23
2018-05-23T12:51:33.091Z,22.89
2018-05-23T12:53:59.600Z,22.56
2018-05-23T12:56:25.943Z,22.26
2018-05-23T12:58:52.277Z,22.04
2018-05-23T13:01:18.642Z,21.89
2018-05-23T13:03:45.087Z,21.70
2018-05-23T13:06:11.443Z,21.47
2018-05-23T13:08:37.916Z,20.93
2018-05-23T13:11:04.250Z,20.77
2018-05-23T13:13:30.606Z,20.13
2018-05-23T13:15:57.039Z,20.02
2018-05-23T13:18:23.380Z,20.03
2018-05-23T13:20:49.723Z,20.07
2018-05-23T13:23:16.104Z,20.13
2018-05-23T13:25:42.461Z,20.20
2018-05-23T13:28:08.803Z,20.29
2018-05-23T13:30:35.201Z,20.45
2018-05-23T13:33:01.544Z,20.58
2018-05-23T13:35:27.884Z,20.40
2018-05-23T13:37:54.326Z,20.44
2018-05-23T13:40:20.687Z,20.45
2018-05-23T13:42:47.045Z,20.28
2018-05-23T13:45:13.420Z,19.93
2018-05-23T13:47:39.751Z,19.43
2018-05-23T13:50:06.083Z,19.16
2018-05-23T13:52:32.451Z,18.98
2018-05-23T13:54:58.798Z,19.32
2018-05-23T13:57:25.152Z,19.26
2018-05-23T13:59:51.687Z,19.40
2018-05-23T14:02:18.041Z,19.43
2018-05-23T14:04:44.386Z,19.48
2018-05-23T14:07:10.769Z,19.24
2018-05-23T14:09:37.238Z,19.29
2018-05-23T14:12:03.600Z,19.27
2018-05-23T14:14:29.999Z,18.79
2018-05-23T14:16:56.335Z,18.72
2018-05-23T14:19:22.716Z,18.60
2018-05-23T14:21:49.149Z,18.29
2018-05-23T14:24:15.492Z,18.21
2018-05-23T14:26:41.918Z,18.51
2018-05-23T14:29:08.294Z,18.74
2018-05-23T14:31:34.625Z,18.68
2018-05-23T14:34:00.957Z,18.55
2018-05-23T14:36:27.345Z,18.71
2018-05-23T14:38:53.676Z,18.81
2018-05-23T14:41:20.033Z,18.75
2018-05-23T14:43:46.574Z,18.89
2018-05-23T14:46:13.092Z,19.02
2018-05-23T14:48:39.416Z,18.90
2018-05-23T14:51:05.833Z,18.71
2018-05-23T14:53:32.164Z,18.14
2018-05-23T14:56:04.453Z,18.02
2018-05-23T14:58:36.927Z,17.45
2018-05-23T15:01:09.500Z,17.20
2018-05-23T15:03:36.816Z,17.18
2018-05-23T15:06:03.461Z,16.89
2018-05-23T15:08:29.834Z,16.82
2018-05-23T15:10:56.289Z,16.79
2018-05-23T15:13:22.668Z,16.85
2018-05-23T15:15:49.024Z,16.95
2018-05-23T15:18:15.374Z,17.12
2018-05-23T15:20:41.771Z,17.17
2018-05-23T15:23:14.162Z,17.29
2018-05-23T15:25:46.710Z,17.32
2018-05-23T15:28:19.068Z,17.37
2018-05-23T15:30:51.527Z,17.48
2018-05-23T15:33:23.868Z,17.60
2018-05-23T15:35:56.357Z,17.69
2018-05-23T15:38:29.182Z,17.81
2018-05-23T15:41:01.618Z,17.84
2018-05-23T15:43:34.116Z,18.00
2018-05-23T15:46:06.489Z,18.19
2018-05-23T15:48:39.211Z,18.11
2018-05-23T15:51:12.106Z,17.92
2018-05-23T15:53:44.486Z,17.91
2018-05-23T15:56:17.029Z,17.81
2018-05-23T15:58:49.572Z,17.78
2018-05-23T16:01:22.015Z,17.60
2018-05-23T16:03:54.287Z,17.42
2018-05-23T16:06:26.683Z,17.12
2018-05-23T16:08:59.073Z,17.01
2018-05-23T16:11:31.748Z,16.65
2018-05-23T16:14:04.341Z,16.80
2018-05-23T16:16:37.377Z,16.74
2018-05-23T16:19:09.908Z,16.71
2018-05-23T16:21:42.463Z,16.75
2018-05-23T16:24:14.887Z,16.55
2018-05-23T16:26:47.616Z,16.39
2018-05-23T16:29:20.160Z,16.32
2018-05-23T16:31:53.043Z,16.13
2018-05-23T16:34:25.363Z,16.18
2018-05-23T16:36:57.879Z,16.07
2018-05-23T16:39:30.614Z,16.13
2018-05-23T16:42:03.189Z,16.29
2018-05-23T16:44:35.685Z,16.41
2018-05-23T16:47:08.020Z,16.32
2018-05-23T16:49:40.568Z,16.27
2018-05-23T16:52:13.159Z,16.24
2018-05-23T16:54:45.657Z,16.29
2018-05-23T16:57:18.178Z,16.28
2018-05-23T16:59:50.665Z,16.27
2018-05-23T17:02:22.996Z,16.01
2018-05-23T17:04:55.526Z,16.03
2018-05-23T17:07:28.011Z,15.90
2018-05-23T17:10:00.292Z,15.90
2018-05-23T17:12:33.011Z,15.82
2018-05-23T17:15:05.421Z,15.80
2018-05-23T17:17:38.029Z,15.75
2018-05-23T17:20:10.297Z,15.64
2018-05-23T17:22:42.801Z,15.46
2018-05-23T17:25:15.194Z,15.41
2018-05-23T17:27:47.826Z,15.48
2018-05-23T17:30:20.276Z,15.46
2018-05-23T17:32:52.773Z,15.43
2018-05-23T17:35:25.201Z,15.31
2018-05-23T17:37:57.556Z,15.02
2018-05-23T17:40:29.872Z,14.94
2018-05-23T17:43:02.507Z,15.06
2018-05-23T17:45:34.987Z,15.07
2018-05-23T17:48:07.759Z,15.01
2018-05-23T17:50:40.064Z,15.05
2018-05-23T17:53:12.575Z,15.00
2018-05-23T17:55:44.983Z,14.95
2018-05-23T17:58:17.636Z,14.91
2018-05-23T18:00:55.253Z,14.84
2018-05-23T18:03:27.615Z,14.67
2018-05-23T18:06:00.182Z,14.60
2018-05-23T18:08:32.728Z,14.52
2018-05-23T18:11:05.016Z,14.51
2018-05-23T18:13:37.686Z,14.44
2018-05-23T18:16:10.066Z,14.36
2018-05-23T18:18:42.540Z,14.32
2018-05-23T18:21:15.090Z,14.26
2018-05-23T18:23:47.685Z,14.16
2018-05-23T18:26:20.023Z,14.17
2018-05-23T18:28:52.548Z,14.08
2018-05-23T18:31:25.025Z,14.19
2018-05-23T18:33:57.541Z,14.22
2018-05-23T18:36:29.881Z,14.09
2018-05-23T18:39:02.403Z,14.11
2018-05-23T18:41:34.930Z,14.01
2018-05-23T18:44:07.468Z,14.02
2018-05-23T18:46:39.960Z,14.14
2018-05-23T18:49:12.429Z,14.10
2018-05-23T18:51:44.872Z,14.00
2018-05-23T18:54:17.249Z,13.89
2018-05-23T18:56:49.658Z,13.80
2018-05-23T18:59:22.215Z,13.76
2018-05-23T19:01:54.770Z,13.69
2018-05-23T19:04:27.259Z,13.78
2018-05-23T19:06:59.803Z,13.74
2018-05-23T19:09:32.132Z,13.73
2018-05-23T19:12:04.621Z,13.76
2018-05-23T19:14:37.257Z,13.73
2018-05-23T19:17:09.655Z,13.69
2018-05-23T19:19:42.193Z,13.75
2018-05-23T19:22:14.636Z,13.84
2018-05-23T19:24:47.232Z,13.92
2018-05-23T19:27:19.607Z,13.75
2018-05-23T19:29:52.042Z,13.58
2018-05-23T19:32:24.557Z,13.52
2018-05-23T19:34:57.054Z,13.51
2018-05-23T19:37:29.508Z,13.52
2018-05-23T19:40:02.026Z,13.44
2018-05-23T19:42:34.524Z,13.49
2018-05-23T19:45:07.075Z,13.57
2018-05-23T19:47:39.500Z,13.61
2018-05-23T19:50:12.516Z,13.61
2018-05-23T19:52:45.238Z,13.59
2018-05-23T19:55:17.538Z,13.62
2018-05-23T19:57:49.988Z,13.63
2018-05-23T20:00:22.452Z,13.74
2018-05-23T20:02:54.937Z,13.61
2018-05-23T20:05:27.299Z,13.26
2018-05-23T20:07:59.921Z,12.85
2018-05-23T20:10:33.129Z,12.96
2018-05-23T20:13:05.610Z,12.77
2018-05-23T20:15:39.976Z,12.54
2018-05-23T20:18:12.470Z,12.37
2018-05-23T20:20:44.943Z,12.32
2018-05-23T20:23:17.439Z,12.46
2018-05-23T20:25:50.006Z,12.76
2018-05-23T20:28:22.316Z,12.89
2018-05-23T20:30:56.551Z,13.06
2018-05-23T20:33:29.044Z,13.05
2018-05-23T20:36:01.388Z,13.17
2018-05-23T20:38:33.822Z,13.21
2018-05-23T20:41:06.426Z,13.28
2018-05-23T20:43:38.697Z,13.36
2018-05-23T20:46:11.283Z,13.51
2018-05-23T20:48:43.725Z,13.52
2018-05-23T20:51:16.097Z,13.56
2018-05-23T20:53:48.577Z,13.64
2018-05-23T20:56:20.945Z,13.68
2018-05-23T20:58:53.515Z,13.71
2018-05-23T21:01:26.390Z,13.67
2018-05-23T21:03:58.771Z,13.65
2018-05-23T21:06:31.197Z,13.67
2018-05-23T21:09:05.459Z,13.72
2018-05-23T21:11:37.946Z,13.66
2018-05-23T21:14:10.450Z,13.41
2018-05-23T21:16:43.180Z,13.30
2018-05-23T21:19:15.559Z,13.30
2018-05-23T21:21:47.987Z,13.42
2018-05-23T21:24:20.422Z,13.45
2018-05-23T21:26:52.812Z,13.55
2018-05-23T21:29:25.274Z,13.69
2018-05-23T21:31:57.868Z,13.67
2018-05-23T21:34:30.376Z,13.80
2018-05-23T21:37:02.780Z,13.89
2018-05-23T21:39:35.270Z,13.84
2018-05-23T21:42:07.810Z,14.01
2018-05-23T21:44:40.128Z,13.98
2018-05-23T21:47:12.492Z,14.02
2018-05-23T21:49:44.951Z,14.00
2018-05-23T21:52:17.454Z,13.76
2018-05-23T21:54:49.773Z,13.42
2018-05-23T21:57:22.102Z,13.33
2018-05-23T21:59:54.376Z,13.53
2018-05-23T22:02:26.976Z,13.75
2018-05-23T22:04:59.368Z,13.72
2018-05-23T22:07:31.773Z,13.60
2018-05-23T22:10:04.185Z,13.49
2018-05-23T22:12:36.569Z,13.53
2018-05-23T22:17:47.370Z,13.59
2018-05-23T22:20:19.810Z,13.62
2018-05-23T22:22:52.111Z,13.61
2018-05-23T22:25:24.483Z,13.69
2018-05-23T22:27:57.021Z,13.67
2018-05-23T22:30:29.328Z,13.71
2018-05-23T22:33:01.760Z,13.72
2018-05-23T22:35:34.350Z,13.68
2018-05-23T22:38:06.993Z,13.68
2018-05-23T22:40:39.412Z,13.65
2018-05-23T22:43:11.719Z,13.59
2018-05-23T22:45:44.197Z,13.54
2018-05-23T22:48:16.757Z,13.48
2018-05-23T22:50:49.244Z,13.43
2018-05-23T22:53:21.577Z,13.23
2018-05-23T22:55:54.102Z,13.21
2018-05-23T22:58:26.708Z,13.22
2018-05-23T23:00:59.193Z,13.22
2018-05-23T23:03:31.754Z,13.31
2018-05-23T23:06:04.132Z,13.38
2018-05-23T23:08:36.465Z,13.37
2018-05-23T23:11:08.828Z,13.37
2018-05-23T23:13:41.344Z,13.37
2018-05-23T23:16:13.871Z,13.37
2018-05-23T23:18:47.597Z,13.44
2018-05-23T23:21:19.936Z,13.46
2018-05-23T23:23:52.922Z,13.48
2018-05-23T23:26:25.379Z,13.47
2018-05-23T23:28:57.706Z,13.38
2018-05-23T23:31:30.190Z,13.43
2018-05-23T23:34:02.760Z,13.49
2018-05-23T23:36:35.156Z,13.60
2018-05-23T23:39:07.495Z,13.60
2018-05-23T23:41:39.940Z,13.42
2018-05-23T23:44:12.411Z,13.26
2018-05-23T23:46:44.825Z,13.17
2018-05-23T23:49:17.225Z,13.21
2018-05-23T23:51:49.690Z,13.28
2018-05-23T23:54:22.409Z,13.21
2018-05-23T23:56:56.154Z,13.36
2018-05-23T23:59:28.832Z,13.50
